createdAt,value
2022-10-23T00:00:05.670Z,44.30
2022-10-23T00:03:09.082Z,49.17
2022-10-23T00:06:11.887Z,45.70
2022-10-23T00:09:16.096Z,43.72
2022-10-23T00:12:18.085Z,45.85
2022-10-23T00:15:21.906Z,43.22
2022-10-23T00:18:23.911Z,48.72
2022-10-23T00:21:26.039Z,43.97
2022-10-23T00:24:27.985Z,47.72
2022-10-23T00:27:29.931Z,47.90
2022-10-23T00:30:32.015Z,47.60
2022-10-23T00:33:34.076Z,41.78
2022-10-23T00:36:36.559Z,46.75
2022-10-23T00:39:38.608Z,45.17
2022-10-23T00:42:40.843Z,52.85
2022-10-23T00:45:42.939Z,55.13
2022-10-23T00:48:45.080Z,50.35
2022-10-23T00:51:48.827Z,50.15
2022-10-23T00:54:50.957Z,48.35
2022-10-23T00:57:53.372Z,44.17
2022-10-23T01:00:56.094Z,41.73
2022-10-23T01:03:58.177Z,45.85
2022-10-23T01:07:26.595Z,46.15
2022-10-23T01:10:32.720Z,47.13
2022-10-23T01:13:44.040Z,47.78
2022-10-23T01:16:58.949Z,49.42
2022-10-23T01:20:14.728Z,51.58
2022-10-23T01:23:35.931Z,48.25
2022-10-23T01:26:37.925Z,44.28
2022-10-23T01:29:42.785Z,45.17
2022-10-23T01:32:48.495Z,52.07
2022-10-23T01:36:01.540Z,51.15
2022-10-23T01:39:07.685Z,54.38
2022-10-23T01:42:15.703Z,55.13
2022-10-23T01:45:27.423Z,52.40
2022-10-23T01:48:30.592Z,56.28
2022-10-23T01:51:33.577Z,52.55
2022-10-23T01:54:40.996Z,58.53
2022-10-23T01:57:45.424Z,53.53
2022-10-23T02:00:49.288Z,55.70
2022-10-23T02:03:52.136Z,55.85
2022-10-23T02:06:54.379Z,56.92
2022-10-23T02:09:56.344Z,57.33
2022-10-23T02:13:02.868Z,49.08
2022-10-23T02:16:07.910Z,51.13
2022-10-23T02:19:18.996Z,58.22
2022-10-23T02:22:20.911Z,54.80
2022-10-23T02:25:28.053Z,50.80
2022-10-23T02:28:34.786Z,58.83
2022-10-23T02:31:38.360Z,53.53
2022-10-23T02:34:40.548Z,52.60
2022-10-23T02:37:52.616Z,58.73
2022-10-23T02:40:56.243Z,57.67
2022-10-23T02:44:17.063Z,61.10
2022-10-23T02:47:38.711Z,63.80
2022-10-23T02:50:52.639Z,58.88
2022-10-23T02:54:06.587Z,78.72
2022-10-23T02:57:15.808Z,69.75
2022-10-23T03:00:22.494Z,67.47
2022-10-23T03:03:30.495Z,70.38
2022-10-23T03:06:32.712Z,76.80
2022-10-23T03:09:34.654Z,82.20
2022-10-23T03:12:36.801Z,73.38
2022-10-23T03:15:40.144Z,66.57
2022-10-23T03:18:42.962Z,67.60
2022-10-23T03:21:44.993Z,77.72
2022-10-23T03:24:46.942Z,67.20
2022-10-23T03:27:49.061Z,71.88
2022-10-23T03:30:52.161Z,75.40
2022-10-23T03:33:54.299Z,77.25
2022-10-23T03:36:57.215Z,64.82
2022-10-23T03:39:59.253Z,65.17
2022-10-23T03:43:01.260Z,66.05
2022-10-23T03:46:09.266Z,67.15
2022-10-23T03:49:11.233Z,66.33
2022-10-23T03:52:13.261Z,70.28
2022-10-23T03:55:15.501Z,70.63
2022-10-23T03:58:17.461Z,70.10
2022-10-23T04:01:19.571Z,66.15
2022-10-23T04:04:21.531Z,73.18
2022-10-23T04:07:23.502Z,67.75
2022-10-23T04:10:25.476Z,68.80
2022-10-23T04:13:27.451Z,64.65
2022-10-23T04:16:29.547Z,71.90
2022-10-23T04:19:31.545Z,74.85
2022-10-23T04:22:33.537Z,68.72
2022-10-23T04:25:35.716Z,72.72
2022-10-23T04:28:39.407Z,66.72
2022-10-23T04:31:41.392Z,68.67
2022-10-23T04:34:43.333Z,69.93
2022-10-23T04:37:45.966Z,70.40
2022-10-23T04:40:47.936Z,63.60
2022-10-23T04:43:55.243Z,69.50
2022-10-23T04:46:57.296Z,70.10
2022-10-23T04:49:59.643Z,76.25
2022-10-23T04:53:30.312Z,65.47
2022-10-23T04:56:52.475Z,68.78
2022-10-23T04:59:56.445Z,64.43
2022-10-23T05:02:59.128Z,74.40
2022-10-23T05:06:07.480Z,71.20
2022-10-23T05:09:12.213Z,78.13
2022-10-23T05:12:40.439Z,64.70
2022-10-23T05:18:46.719Z,66.32
2022-10-23T05:21:49.643Z,85.40
2022-10-23T05:24:54.593Z,71.70
2022-10-23T05:28:01.055Z,86.22
2022-10-23T05:31:04.155Z,78.00
2022-10-23T05:34:09.878Z,83.63
2022-10-23T05:37:17.657Z,97.22
2022-10-23T05:40:19.981Z,90.63
2022-10-23T05:43:23.383Z,94.78
2022-10-23T05:46:31.410Z,91.13
2022-10-23T05:49:51.592Z,85.97
2022-10-23T05:53:11.712Z,77.70
2022-10-23T05:56:26.267Z,68.83
2022-10-23T05:59:35.713Z,76.03
2022-10-23T06:02:55.569Z,80.38
2022-10-23T06:06:07.723Z,68.20
2022-10-23T06:09:20.193Z,64.28
2022-10-23T06:12:22.941Z,68.70
2022-10-23T06:15:27.642Z,68.32
2022-10-23T06:18:34.438Z,62.22
2022-10-23T06:21:42.888Z,56.38
2022-10-23T06:24:47.620Z,50.45
2022-10-23T06:27:54.692Z,46.20
2022-10-23T06:30:58.885Z,46.17
2022-10-23T06:34:00.914Z,43.45
2022-10-23T06:37:04.771Z,45.33
2022-10-23T06:40:18.828Z,43.87
2022-10-23T06:43:36.477Z,41.63
2022-10-23T06:47:14.525Z,36.55
2022-10-23T06:50:36.456Z,40.67
2022-10-23T06:53:42.033Z,36.90
2022-10-23T06:57:06.552Z,35.35
2022-10-23T07:00:18.343Z,38.85
2022-10-23T07:03:27.096Z,36.50
2022-10-23T07:06:29.323Z,35.10
2022-10-23T07:09:31.549Z,33.35
2022-10-23T07:13:03.210Z,36.13
2022-10-23T07:16:17.373Z,35.47
2022-10-23T07:19:19.977Z,33.35
2022-10-23T07:22:32.615Z,37.42
2022-10-23T07:25:42.018Z,30.75
2022-10-23T07:28:45.475Z,29.53
2022-10-23T07:31:49.884Z,31.83
2022-10-23T07:35:24.492Z,29.70
2022-10-23T07:38:32.054Z,31.13
2022-10-23T07:41:34.858Z,29.53
2022-10-23T07:44:36.825Z,27.97
2022-10-23T07:47:38.864Z,29.45
2022-10-23T07:50:40.978Z,30.48
2022-10-23T07:53:43.727Z,25.97
2022-10-23T07:57:12.188Z,27.43
2022-10-23T08:00:43.115Z,27.83
2022-10-23T08:04:01.105Z,25.77
2022-10-23T08:07:03.912Z,25.33
2022-10-23T08:10:12.294Z,26.67
2022-10-23T08:13:17.321Z,24.58
2022-10-23T08:16:35.847Z,26.67
2022-10-23T08:19:40.590Z,23.15
2022-10-23T08:22:42.597Z,22.93
2022-10-23T08:25:46.261Z,24.50
2022-10-23T08:28:50.914Z,21.02
2022-10-23T08:31:53.831Z,21.67
2022-10-23T08:35:16.773Z,21.52
2022-10-23T08:38:18.728Z,21.27
2022-10-23T08:41:33.241Z,23.08
2022-10-23T08:45:01.947Z,21.02
2022-10-23T08:48:12.792Z,20.05
2022-10-23T08:51:54.517Z,23.50
2022-10-23T08:54:57.132Z,23.53
2022-10-23T08:58:15.390Z,20.88
2022-10-23T09:01:35.778Z,18.20
2022-10-23T09:04:37.873Z,20.67
2022-10-23T09:07:43.147Z,19.08
2022-10-23T09:10:58.833Z,16.90
2022-10-23T09:14:15.760Z,15.88
2022-10-23T09:17:25.202Z,14.27
2022-10-23T09:20:37.085Z,15.82
2022-10-23T09:23:39.035Z,14.50
2022-10-23T09:26:42.753Z,21.50
2022-10-23T09:29:53.266Z,15.40
2022-10-23T09:32:55.242Z,16.60
2022-10-23T09:35:58.489Z,15.18
2022-10-23T09:39:00.526Z,14.60
2022-10-23T09:42:20.933Z,13.27
2022-10-23T09:45:33.706Z,16.70
2022-10-23T09:48:38.825Z,15.77
2022-10-23T09:51:42.090Z,13.77
2022-10-23T09:54:44.017Z,15.10
2022-10-23T09:57:47.207Z,13.33
2022-10-23T10:00:52.335Z,12.02
2022-10-23T10:04:10.711Z,18.05
2022-10-23T10:07:20.551Z,15.35
2022-10-23T10:10:22.837Z,17.00
2022-10-23T10:13:33.627Z,18.43
2022-10-23T10:16:50.281Z,20.45
2022-10-23T10:20:00.341Z,15.13
2022-10-23T10:23:07.594Z,17.77
2022-10-23T10:26:22.844Z,14.38
2022-10-23T10:29:29.999Z,14.30
2022-10-23T10:32:34.693Z,14.10
2022-10-23T10:35:53.064Z,11.13
2022-10-23T10:38:59.706Z,13.02
2022-10-23T10:42:13.030Z,12.68
2022-10-23T10:45:17.734Z,10.90
2022-10-23T10:48:38.304Z,11.18
2022-10-23T10:52:33.352Z,12.18
2022-10-23T10:55:39.497Z,15.32
2022-10-23T10:58:41.424Z,14.68
2022-10-23T11:01:49.744Z,14.90
2022-10-23T11:04:54.869Z,13.68
2022-10-23T11:07:57.004Z,13.32
2022-10-23T11:11:01.583Z,12.95
2022-10-23T11:14:03.689Z,13.18
2022-10-23T11:17:05.631Z,12.50
2022-10-23T11:20:16.969Z,14.43
2022-10-23T11:23:21.924Z,21.63
2022-10-23T11:26:29.670Z,17.90
2022-10-23T11:29:46.538Z,17.42
2022-10-23T11:33:03.539Z,16.27
2022-10-23T11:36:16.352Z,17.55
2022-10-23T11:39:21.429Z,16.25
2022-10-23T11:42:30.997Z,14.75
2022-10-23T11:45:34.547Z,15.20
2022-10-23T11:48:40.897Z,13.10
2022-10-23T11:51:42.851Z,12.35
2022-10-23T11:54:44.812Z,14.27
2022-10-23T11:58:05.205Z,10.80
2022-10-23T12:01:19.531Z,12.43
2022-10-23T12:04:23.964Z,12.80
2022-10-23T12:07:25.907Z,10.90
2022-10-23T12:10:43.977Z,11.48
2022-10-23T12:13:46.484Z,13.50
2022-10-23T12:16:48.441Z,12.88
2022-10-23T12:19:52.262Z,13.50
2022-10-23T12:23:00.180Z,13.80
2022-10-23T12:26:02.122Z,12.35
2022-10-23T12:29:09.631Z,17.77
2022-10-23T12:32:20.428Z,12.48
2022-10-23T12:35:43.190Z,12.17
2022-10-23T12:38:46.153Z,11.05
2022-10-23T12:41:48.086Z,11.38
2022-10-23T12:45:00.667Z,12.05
2022-10-23T12:48:02.595Z,19.75
2022-10-23T12:51:04.544Z,10.03
2022-10-23T12:54:20.149Z,13.07
2022-10-23T12:57:26.533Z,9.80
2022-10-23T13:00:28.611Z,9.25
2022-10-23T13:03:31.149Z,9.35
2022-10-23T13:06:33.219Z,8.37
2022-10-23T13:09:38.162Z,9.30
2022-10-23T13:13:03.649Z,8.77
2022-10-23T13:16:14.056Z,7.40
2022-10-23T13:19:22.808Z,8.10
2022-10-23T13:22:24.928Z,9.53
2022-10-23T13:25:31.267Z,12.20
2022-10-23T13:28:43.327Z,11.13
2022-10-23T13:31:45.272Z,10.65
2022-10-23T13:35:04.109Z,13.13
2022-10-23T13:38:17.645Z,12.13
2022-10-23T13:41:20.117Z,9.73
2022-10-23T13:44:23.013Z,9.13
2022-10-23T13:47:24.960Z,10.18
2022-10-23T13:50:26.971Z,11.07
2022-10-23T13:53:30.515Z,9.97
2022-10-23T13:56:32.476Z,10.18
2022-10-23T13:59:34.388Z,8.52
2022-10-23T14:02:36.371Z,8.85
2022-10-23T14:05:38.385Z,7.75
2022-10-23T14:08:40.328Z,8.50
2022-10-23T14:11:42.279Z,16.75
2022-10-23T14:14:44.291Z,11.38
2022-10-23T14:17:46.379Z,10.65
2022-10-23T14:20:48.423Z,16.73
2022-10-23T14:23:51.471Z,11.23
2022-10-23T14:26:53.472Z,12.63
2022-10-23T14:29:55.596Z,10.48
2022-10-23T14:32:57.521Z,10.00
2022-10-23T14:35:59.533Z,10.57
2022-10-23T14:39:01.567Z,14.67
2022-10-23T14:42:03.569Z,15.35
2022-10-23T14:45:05.943Z,11.63
2022-10-23T14:48:07.896Z,13.95
2022-10-23T14:51:18.175Z,10.80
2022-10-23T14:54:20.146Z,19.43
2022-10-23T14:57:22.561Z,27.38
2022-10-23T15:00:24.525Z,17.70
2022-10-23T15:03:27.608Z,12.50
2022-10-23T15:06:29.563Z,13.15
2022-10-23T15:09:36.549Z,12.33
2022-10-23T15:12:38.602Z,12.82
2022-10-23T15:15:40.667Z,14.65
2022-10-23T15:18:42.593Z,20.73
2022-10-23T15:21:45.075Z,23.92
2022-10-23T15:24:47.952Z,19.90
2022-10-23T15:27:49.961Z,24.65
2022-10-23T15:30:51.932Z,15.95
2022-10-23T15:33:53.865Z,17.02
2022-10-23T15:36:56.760Z,18.90
2022-10-23T15:40:01.311Z,15.80
2022-10-23T15:43:05.258Z,13.82
2022-10-23T15:46:07.182Z,12.52
2022-10-23T15:49:09.320Z,12.60
2022-10-23T15:52:11.476Z,13.18
2022-10-23T15:55:13.506Z,20.27
2022-10-23T15:58:15.564Z,25.23
2022-10-23T16:01:17.849Z,28.30
2022-10-23T16:04:19.904Z,35.22
2022-10-23T16:07:21.873Z,30.42
2022-10-23T16:10:24.973Z,28.30
2022-10-23T16:13:27.030Z,28.33
2022-10-23T16:16:29.032Z,24.48
2022-10-23T16:19:31.032Z,19.83
2022-10-23T16:22:32.995Z,18.75
2022-10-23T16:25:38.283Z,16.20
2022-10-23T16:28:40.285Z,16.73
2022-10-23T16:31:42.351Z,18.95
2022-10-23T16:34:44.534Z,17.88
2022-10-23T16:37:46.716Z,15.25
2022-10-23T16:40:53.677Z,16.53
2022-10-23T16:44:24.829Z,19.88
2022-10-23T16:47:38.733Z,25.30
2022-10-23T16:50:41.498Z,37.08
2022-10-23T16:53:43.866Z,25.38
2022-10-23T16:56:45.893Z,35.00
2022-10-23T16:59:47.864Z,30.50
2022-10-23T17:02:49.867Z,22.45
2022-10-23T17:05:51.960Z,14.32
2022-10-23T17:08:54.190Z,44.20
2022-10-23T17:11:56.097Z,21.93
2022-10-23T17:14:58.272Z,13.63
2022-10-23T17:18:00.203Z,10.65
2022-10-23T17:21:02.339Z,9.52
2022-10-23T17:24:05.010Z,11.27
2022-10-23T17:27:06.976Z,8.60
2022-10-23T17:30:12.519Z,10.50
2022-10-23T17:33:14.864Z,10.70
2022-10-23T17:36:17.699Z,11.05
2022-10-23T17:39:21.624Z,13.25
2022-10-23T17:42:23.581Z,13.87
2022-10-23T17:45:25.533Z,15.05
2022-10-23T17:48:27.514Z,17.20
2022-10-23T17:51:30.389Z,16.92
2022-10-23T17:54:32.363Z,17.33
2022-10-23T17:57:34.357Z,17.67
2022-10-23T18:00:38.765Z,14.82
2022-10-23T18:03:41.143Z,14.30
2022-10-23T18:06:44.587Z,20.15
2022-10-23T18:09:46.539Z,28.67
2022-10-23T18:12:48.469Z,23.17
2022-10-23T18:15:51.687Z,30.30
2022-10-23T18:18:53.740Z,26.67
2022-10-23T18:21:55.809Z,18.17
2022-10-23T18:24:57.934Z,19.23
2022-10-23T18:28:01.785Z,17.53
2022-10-23T18:31:07.685Z,32.03
2022-10-23T18:34:17.176Z,18.25
2022-10-23T18:37:19.171Z,22.33
2022-10-23T18:40:23.147Z,18.48
2022-10-23T18:43:42.711Z,25.03
2022-10-23T18:46:46.194Z,23.70
2022-10-23T18:49:48.153Z,24.80
2022-10-23T18:52:50.131Z,29.73
2022-10-23T18:55:52.093Z,23.00
2022-10-23T18:58:55.121Z,24.30
2022-10-23T19:01:57.247Z,23.10
2022-10-23T19:04:59.296Z,26.00
2022-10-23T19:08:01.245Z,25.13
2022-10-23T19:11:04.293Z,33.60
2022-10-23T19:14:06.280Z,46.80
2022-10-23T19:17:14.728Z,49.20
2022-10-23T19:20:17.752Z,42.08
2022-10-23T19:23:19.799Z,40.53
2022-10-23T19:26:21.861Z,41.63
2022-10-23T19:29:26.487Z,30.37
2022-10-23T19:32:28.433Z,27.27
2022-10-23T19:35:30.384Z,23.20
2022-10-23T19:38:32.433Z,21.30
2022-10-23T19:41:34.455Z,33.33
2022-10-23T19:44:36.469Z,29.83
2022-10-23T19:47:38.421Z,34.20
2022-10-23T19:50:43.236Z,25.27
2022-10-23T19:53:45.213Z,32.80
2022-10-23T19:56:47.769Z,26.75
2022-10-23T19:59:50.679Z,25.80
2022-10-23T20:02:55.147Z,24.70
2022-10-23T20:05:57.412Z,26.70
2022-10-23T20:09:00.366Z,25.38
2022-10-23T20:12:02.473Z,22.95
2022-10-23T20:15:04.690Z,21.97
2022-10-23T20:18:06.737Z,21.60
2022-10-23T20:21:08.685Z,21.70
2022-10-23T20:24:11.572Z,17.02
2022-10-23T20:27:14.723Z,21.35
2022-10-23T20:30:16.696Z,19.17
2022-10-23T20:33:18.652Z,24.38
2022-10-23T20:36:22.191Z,20.05
2022-10-23T20:39:29.598Z,17.13
2022-10-23T20:42:31.532Z,18.98
2022-10-23T20:45:33.888Z,17.63
2022-10-23T20:48:36.359Z,16.15
2022-10-23T20:51:38.288Z,17.63
2022-10-23T20:54:40.362Z,21.10
2022-10-23T20:57:42.543Z,18.27
2022-10-23T21:00:44.674Z,18.00
2022-10-23T21:03:51.108Z,21.42
2022-10-23T21:07:10.792Z,23.30
2022-10-23T21:10:13.476Z,20.02
2022-10-23T21:13:15.445Z,20.45
2022-10-23T21:16:27.766Z,19.60
2022-10-23T21:19:30.883Z,18.73
2022-10-23T21:22:32.864Z,17.70
2022-10-23T21:25:37.744Z,17.60
2022-10-23T21:28:41.755Z,18.23
2022-10-23T21:31:53.817Z,19.03
2022-10-23T21:34:55.912Z,20.90
2022-10-23T21:37:58.022Z,17.27
2022-10-23T21:41:10.137Z,16.70
2022-10-23T21:44:13.091Z,17.27
2022-10-23T21:47:15.111Z,16.37
2022-10-23T21:50:17.128Z,16.75
2022-10-23T21:53:19.089Z,21.90
2022-10-23T21:56:29.874Z,18.50
2022-10-23T21:59:35.488Z,19.40
2022-10-23T22:02:37.796Z,18.30
2022-10-23T22:05:39.742Z,19.35
2022-10-23T22:08:41.741Z,22.38
2022-10-23T22:11:43.717Z,20.60
2022-10-23T22:14:45.750Z,21.13
2022-10-23T22:17:47.716Z,24.17
2022-10-23T22:20:49.776Z,21.42
2022-10-23T22:23:54.065Z,20.40
2022-10-23T22:26:56.536Z,17.65
2022-10-23T22:29:58.547Z,20.30
2022-10-23T22:33:00.574Z,20.13
2022-10-23T22:36:03.222Z,22.23
2022-10-23T22:39:06.039Z,18.80
2022-10-23T22:42:08.049Z,17.43
2022-10-23T22:45:10.118Z,20.10
2022-10-23T22:48:12.025Z,20.30
2022-10-23T22:51:15.187Z,16.42
2022-10-23T22:54:17.158Z,17.97
2022-10-23T22:57:19.117Z,19.83
2022-10-23T23:00:21.160Z,17.17
2022-10-23T23:03:23.100Z,19.23
2022-10-23T23:06:25.443Z,18.88
2022-10-23T23:09:27.377Z,16.30
2022-10-23T23:12:29.366Z,18.00
2022-10-23T23:15:31.344Z,19.48
2022-10-23T23:18:33.544Z,21.27
2022-10-23T23:21:35.480Z,17.87
2022-10-23T23:24:37.531Z,19.23
2022-10-23T23:27:42.506Z,19.92
2022-10-23T23:33:51.974Z,17.70
2022-10-23T23:36:53.917Z,20.37
2022-10-23T23:39:55.917Z,18.92
2022-10-23T23:42:57.895Z,17.15
2022-10-23T23:45:59.853Z,20.23
2022-10-23T23:49:01.855Z,21.57
2022-10-23T23:52:03.840Z,22.65
2022-10-23T23:55:06.040Z,20.13
2022-10-23T23:58:08.125Z,22.75
